createdAt,value
2023-03-10T00:00:22.144Z,100.00
2023-03-10T00:02:50.216Z,100.00
2023-03-10T00:05:17.068Z,100.00
2023-03-10T00:07:43.390Z,100.00
2023-03-10T00:10:09.704Z,100.00
2023-03-10T00:12:36.088Z,100.00
2023-03-10T00:15:02.423Z,100.00
2023-03-10T00:17:29.548Z,100.00
2023-03-10T00:19:55.878Z,100.00
2023-03-10T00:22:22.204Z,100.00
2023-03-10T00:24:48.531Z,100.00
2023-03-10T00:27:14.848Z,100.00
2023-03-10T00:29:41.176Z,100.00
2023-03-10T00:32:07.476Z,100.00
2023-03-10T00:34:33.816Z,100.00
2023-03-10T00:37:00.131Z,100.00
2023-03-10T00:39:26.429Z,100.00
2023-03-10T00:41:52.727Z,100.00
2023-03-10T00:44:19.061Z,100.00
2023-03-10T00:46:45.479Z,100.00
2023-03-10T00:49:11.802Z,100.00
2023-03-10T00:51:38.120Z,100.00
2023-03-10T00:54:04.513Z,100.00
2023-03-10T00:56:30.878Z,100.00
2023-03-10T00:58:57.204Z,100.00
2023-03-10T01:01:23.585Z,100.00
2023-03-10T01:03:49.923Z,100.00
2023-03-10T01:06:16.234Z,100.00
2023-03-10T01:08:42.543Z,100.00
2023-03-10T01:11:08.905Z,100.00
2023-03-10T01:13:35.260Z,100.00
2023-03-10T01:16:01.655Z,100.00
2023-03-10T01:18:27.987Z,100.00
2023-03-10T01:20:54.325Z,100.00
2023-03-10T01:23:20.655Z,100.00
2023-03-10T01:25:46.950Z,100.00
2023-03-10T01:28:13.334Z,100.00
2023-03-10T01:30:39.700Z,100.00
2023-03-10T01:33:06.023Z,100.00
2023-03-10T01:35:32.344Z,100.00
2023-03-10T01:37:58.676Z,100.00
2023-03-10T01:40:26.792Z,100.00
2023-03-10T01:42:53.109Z,100.00
2023-03-10T01:45:19.440Z,100.00
2023-03-10T01:47:45.767Z,100.00
2023-03-10T01:50:13.877Z,100.00
2023-03-10T01:52:40.220Z,100.00
2023-03-10T01:55:07.163Z,100.00
2023-03-10T01:57:33.487Z,100.00
2023-03-10T01:59:59.821Z,100.00
2023-03-10T02:02:26.177Z,100.00
2023-03-10T02:04:52.567Z,100.00
2023-03-10T02:07:18.908Z,100.00
2023-03-10T02:09:45.286Z,100.00
2023-03-10T02:12:11.658Z,100.00
2023-03-10T02:14:37.998Z,100.00
2023-03-10T02:17:04.331Z,100.00
2023-03-10T02:19:30.678Z,100.00
2023-03-10T02:21:56.989Z,100.00
2023-03-10T02:24:23.312Z,100.00
2023-03-10T02:26:49.647Z,100.00
2023-03-10T02:29:15.945Z,100.00
2023-03-10T02:31:42.345Z,100.00
2023-03-10T02:34:08.723Z,100.00
2023-03-10T02:36:35.052Z,100.00
2023-03-10T02:39:01.355Z,100.00
2023-03-10T02:41:27.708Z,100.00
2023-03-10T02:43:54.119Z,100.00
2023-03-10T02:46:20.456Z,100.00
2023-03-10T02:48:46.893Z,98.92
2023-03-10T02:51:13.468Z,97.24
2023-03-10T02:53:39.798Z,95.82
2023-03-10T02:56:06.097Z,95.37
2023-03-10T02:58:32.562Z,96.88
2023-03-10T03:00:58.911Z,97.59
2023-03-10T03:03:25.272Z,99.24
2023-03-10T03:05:51.602Z,99.99
2023-03-10T03:08:17.920Z,100.00
2023-03-10T03:10:44.226Z,100.00
2023-03-10T03:13:10.527Z,100.00
2023-03-10T03:15:36.850Z,100.00
2023-03-10T03:18:03.193Z,100.00
2023-03-10T03:20:29.512Z,100.00
2023-03-10T03:22:55.844Z,100.00
2023-03-10T03:25:22.152Z,100.00
2023-03-10T03:27:48.459Z,100.00
2023-03-10T03:30:14.762Z,100.00
2023-03-10T03:32:41.139Z,100.00
2023-03-10T03:35:07.526Z,100.00
2023-03-10T03:37:34.145Z,99.83
2023-03-10T03:40:00.540Z,98.22
2023-03-10T03:42:26.996Z,99.03
2023-03-10T03:44:53.332Z,98.57
2023-03-10T03:47:19.662Z,98.48
2023-03-10T03:49:45.980Z,99.39
2023-03-10T03:52:12.310Z,99.20
2023-03-10T03:54:38.629Z,99.36
2023-03-10T03:57:04.929Z,100.00
2023-03-10T03:59:31.233Z,100.00
2023-03-10T04:01:57.640Z,100.00
2023-03-10T04:04:23.975Z,100.00
2023-03-10T04:06:50.318Z,100.00
2023-03-10T04:09:18.245Z,100.00
2023-03-10T04:11:44.565Z,100.00
2023-03-10T04:14:10.877Z,100.00
2023-03-10T04:16:37.244Z,100.00
2023-03-10T04:19:03.586Z,100.00
2023-03-10T04:21:29.968Z,100.00
2023-03-10T04:23:56.334Z,100.00
2023-03-10T04:26:22.696Z,100.00
2023-03-10T04:28:49.005Z,100.00
2023-03-10T04:31:15.911Z,100.00
2023-03-10T04:33:42.294Z,100.00
2023-03-10T04:36:08.660Z,100.00
2023-03-10T04:38:35.038Z,100.00
2023-03-10T04:41:03.045Z,100.00
2023-03-10T04:43:29.399Z,100.00
2023-03-10T04:45:55.760Z,100.00
2023-03-10T04:48:23.798Z,100.00
2023-03-10T04:50:50.112Z,99.95
2023-03-10T04:53:16.422Z,100.00
2023-03-10T04:55:42.760Z,97.59
2023-03-10T04:58:09.079Z,95.84
2023-03-10T05:00:35.496Z,94.99
2023-03-10T05:03:01.905Z,92.01
2023-03-10T05:05:28.199Z,91.81
2023-03-10T05:07:54.521Z,91.37
2023-03-10T05:10:20.845Z,90.30
2023-03-10T05:12:47.160Z,90.09
2023-03-10T05:15:13.489Z,89.30
2023-03-10T05:17:39.886Z,88.44
2023-03-10T05:20:08.037Z,89.39
2023-03-10T05:22:34.350Z,89.17
2023-03-10T05:25:00.690Z,87.73
2023-03-10T05:27:27.072Z,87.24
2023-03-10T05:29:53.389Z,86.82
2023-03-10T05:32:19.718Z,87.00
2023-03-10T05:34:46.080Z,87.14
2023-03-10T05:37:12.537Z,87.17
2023-03-10T05:39:38.905Z,86.89
2023-03-10T05:42:05.290Z,86.73
2023-03-10T05:44:31.613Z,85.76
2023-03-10T05:46:58.124Z,86.24
2023-03-10T05:49:24.486Z,85.93
2023-03-10T05:51:50.988Z,84.68
2023-03-10T05:54:17.321Z,86.41
2023-03-10T05:56:43.652Z,86.66
2023-03-10T05:59:09.974Z,85.76
2023-03-10T06:01:36.600Z,84.91
2023-03-10T06:04:02.949Z,85.13
2023-03-10T06:06:29.322Z,84.25
2023-03-10T06:08:55.712Z,83.37
2023-03-10T06:11:22.091Z,84.00
2023-03-10T06:13:48.402Z,82.42
2023-03-10T06:16:14.809Z,83.09
2023-03-10T06:18:41.170Z,83.44
2023-03-10T06:21:07.869Z,83.42
2023-03-10T06:23:34.228Z,84.56
2023-03-10T06:26:00.566Z,84.52
2023-03-10T06:28:27.022Z,82.15
2023-03-10T06:30:53.344Z,82.52
2023-03-10T06:33:19.673Z,83.99
2023-03-10T06:35:46.048Z,83.16
2023-03-10T06:38:12.398Z,83.19
2023-03-10T06:40:38.731Z,83.51
2023-03-10T06:43:05.071Z,82.32
2023-03-10T06:45:31.459Z,83.88
2023-03-10T06:47:57.838Z,83.40
2023-03-10T06:50:24.156Z,83.26
2023-03-10T06:52:50.477Z,81.51
2023-03-10T06:55:17.119Z,81.51
2023-03-10T06:57:43.410Z,81.84
2023-03-10T07:00:15.723Z,81.67
2023-03-10T07:02:42.082Z,82.17
2023-03-10T07:05:08.554Z,83.35
2023-03-10T07:07:34.887Z,84.04
2023-03-10T07:10:01.430Z,84.98
2023-03-10T07:12:27.768Z,84.50
2023-03-10T07:14:54.091Z,83.63
2023-03-10T07:17:20.445Z,84.44
2023-03-10T07:19:46.813Z,83.41
2023-03-10T07:22:13.208Z,83.65
2023-03-10T07:24:39.531Z,84.38
2023-03-10T07:27:05.838Z,83.97
2023-03-10T07:29:32.211Z,83.97
2023-03-10T07:31:58.522Z,83.36
2023-03-10T07:34:24.866Z,83.14
2023-03-10T07:36:51.182Z,83.23
2023-03-10T07:39:17.552Z,83.35
2023-03-10T07:41:43.854Z,83.50
2023-03-10T07:44:10.197Z,83.60
2023-03-10T07:46:36.578Z,82.68
2023-03-10T07:49:05.079Z,82.99
2023-03-10T07:51:31.451Z,82.42
2023-03-10T07:53:57.786Z,82.80
2023-03-10T07:56:24.089Z,82.32
2023-03-10T07:58:50.411Z,82.70
2023-03-10T08:01:16.999Z,81.51
2023-03-10T08:03:43.430Z,80.84
2023-03-10T08:06:09.776Z,79.81
2023-03-10T08:08:36.129Z,80.03
2023-03-10T08:11:02.495Z,81.33
2023-03-10T08:13:28.882Z,80.32
2023-03-10T08:15:55.239Z,79.04
2023-03-10T08:18:23.469Z,78.09
2023-03-10T08:20:49.815Z,78.57
2023-03-10T08:23:16.126Z,77.95
2023-03-10T08:25:42.461Z,77.69
2023-03-10T08:28:08.878Z,77.65
2023-03-10T08:30:35.424Z,77.76
2023-03-10T08:33:01.893Z,76.89
2023-03-10T08:35:28.333Z,75.98
2023-03-10T08:37:55.432Z,75.52
2023-03-10T08:40:21.820Z,76.52
2023-03-10T08:42:48.709Z,74.48
2023-03-10T08:45:15.072Z,74.94
2023-03-10T08:47:41.383Z,74.62
2023-03-10T08:50:07.705Z,72.41
2023-03-10T08:52:34.006Z,71.80
2023-03-10T08:55:00.394Z,72.77
2023-03-10T08:57:26.738Z,71.59
2023-03-10T08:59:53.596Z,72.85
2023-03-10T09:02:22.095Z,72.60
2023-03-10T09:04:48.509Z,72.85
2023-03-10T09:07:14.825Z,72.56
2023-03-10T09:09:41.123Z,71.27
2023-03-10T09:12:09.045Z,70.99
2023-03-10T09:14:35.355Z,71.01
2023-03-10T09:17:01.745Z,71.35
2023-03-10T09:19:28.129Z,69.95
2023-03-10T09:21:55.474Z,70.99
2023-03-10T09:24:21.812Z,68.44
2023-03-10T09:26:48.138Z,66.57
2023-03-10T09:29:14.492Z,66.86
2023-03-10T09:31:41.121Z,66.14
2023-03-10T09:34:08.376Z,67.46
2023-03-10T09:36:34.977Z,67.99
2023-03-10T09:39:01.437Z,70.00
2023-03-10T09:41:27.755Z,68.49
2023-03-10T09:43:55.375Z,69.08
2023-03-10T09:46:21.919Z,69.61
2023-03-10T09:48:48.308Z,65.98
2023-03-10T09:51:14.641Z,64.73
2023-03-10T09:53:40.981Z,64.37
2023-03-10T09:56:07.305Z,63.29
2023-03-10T09:58:34.020Z,62.97
2023-03-10T10:01:00.341Z,62.34
2023-03-10T10:03:26.691Z,62.37
2023-03-10T10:05:53.074Z,61.00
2023-03-10T10:08:19.531Z,62.14
2023-03-10T10:10:45.836Z,59.18
2023-03-10T10:13:12.166Z,59.20
2023-03-10T10:15:38.484Z,60.55
2023-03-10T10:18:16.153Z,58.77
2023-03-10T10:20:44.645Z,57.87
2023-03-10T10:23:10.949Z,58.65
2023-03-10T10:25:37.276Z,58.87
2023-03-10T10:28:03.575Z,58.12
2023-03-10T10:30:30.026Z,55.48
2023-03-10T10:32:56.601Z,55.17
2023-03-10T10:35:22.940Z,57.37
2023-03-10T10:37:49.339Z,59.22
2023-03-10T10:40:15.682Z,58.65
2023-03-10T10:42:42.608Z,57.99
2023-03-10T10:45:08.913Z,57.13
2023-03-10T10:47:35.271Z,57.49
2023-03-10T10:50:01.596Z,58.50
2023-03-10T10:52:27.888Z,57.93
2023-03-10T10:54:56.807Z,58.82
2023-03-10T10:57:23.148Z,56.33
2023-03-10T10:59:49.588Z,57.40
2023-03-10T11:02:15.946Z,56.51
2023-03-10T11:04:42.442Z,57.17
2023-03-10T11:07:08.803Z,57.62
2023-03-10T11:09:35.136Z,57.60
2023-03-10T11:12:01.537Z,57.78
2023-03-10T11:14:27.978Z,56.62
2023-03-10T11:16:54.308Z,56.52
2023-03-10T11:19:21.073Z,56.35
2023-03-10T11:21:47.374Z,57.16
2023-03-10T11:24:13.706Z,58.04
2023-03-10T11:26:40.033Z,59.54
2023-03-10T11:29:07.568Z,58.91
2023-03-10T11:31:34.001Z,58.83
2023-03-10T11:34:00.408Z,58.53
2023-03-10T11:36:26.725Z,57.72
2023-03-10T11:38:54.749Z,56.32
2023-03-10T11:41:21.111Z,56.54
2023-03-10T11:43:47.442Z,58.22
2023-03-10T11:46:13.798Z,57.99
2023-03-10T11:48:41.651Z,56.54
2023-03-10T11:51:08.464Z,56.35
2023-03-10T11:53:34.779Z,56.61
2023-03-10T11:56:01.119Z,55.74
2023-03-10T11:58:27.458Z,56.01
2023-03-10T12:00:54.063Z,55.22
2023-03-10T12:03:20.457Z,56.35
2023-03-10T12:05:46.956Z,56.47
2023-03-10T12:08:13.333Z,55.84
2023-03-10T12:10:39.667Z,54.42
2023-03-10T12:13:05.999Z,53.07
2023-03-10T12:15:36.256Z,53.93
2023-03-10T12:18:02.573Z,55.09
2023-03-10T12:20:28.978Z,55.08
2023-03-10T12:22:55.276Z,55.27
2023-03-10T12:25:21.646Z,54.67
2023-03-10T12:27:47.946Z,55.35
2023-03-10T12:30:14.257Z,55.31
2023-03-10T12:32:41.789Z,56.15
2023-03-10T12:35:08.168Z,56.27
2023-03-10T12:37:34.557Z,56.13
2023-03-10T12:40:00.918Z,57.11
2023-03-10T12:42:27.264Z,56.04
2023-03-10T12:44:53.801Z,57.02
2023-03-10T12:47:20.105Z,57.20
2023-03-10T12:49:46.448Z,57.71
2023-03-10T12:52:12.786Z,56.86
2023-03-10T12:54:39.108Z,55.51
2023-03-10T12:57:05.412Z,55.59
2023-03-10T12:59:31.740Z,54.90
2023-03-10T13:01:58.096Z,54.61
2023-03-10T13:04:24.437Z,53.86
2023-03-10T13:06:50.915Z,56.07
2023-03-10T13:09:17.237Z,55.72
2023-03-10T13:11:43.568Z,55.14
2023-03-10T13:14:09.865Z,54.90
2023-03-10T13:16:36.773Z,53.87
2023-03-10T13:19:03.941Z,53.21
2023-03-10T13:21:30.329Z,53.53
2023-03-10T13:23:56.756Z,52.30
2023-03-10T13:26:24.398Z,52.81
2023-03-10T13:28:50.732Z,53.61
2023-03-10T13:31:17.328Z,53.00
2023-03-10T13:33:52.663Z,53.81
2023-03-10T13:36:19.883Z,53.82
2023-03-10T13:38:46.208Z,53.50
2023-03-10T13:41:12.568Z,53.09
2023-03-10T13:43:38.910Z,53.98
2023-03-10T13:46:05.443Z,54.99
2023-03-10T13:48:31.884Z,54.50
2023-03-10T13:50:58.206Z,53.74
2023-03-10T13:53:25.478Z,54.44
2023-03-10T13:55:51.805Z,52.72
2023-03-10T13:58:18.142Z,54.18
2023-03-10T14:00:50.607Z,53.01
2023-03-10T14:03:20.158Z,53.15
2023-03-10T14:05:46.714Z,53.51
2023-03-10T14:08:13.053Z,53.37
2023-03-10T14:10:39.406Z,52.77
2023-03-10T14:13:05.733Z,53.65
2023-03-10T14:15:38.865Z,54.40
2023-03-10T14:18:05.201Z,55.05
2023-03-10T14:20:31.559Z,54.30
2023-03-10T14:22:57.888Z,56.11
2023-03-10T14:25:24.278Z,57.98
2023-03-10T14:27:50.600Z,59.23
2023-03-10T14:30:17.000Z,58.01
2023-03-10T14:32:43.363Z,60.83
2023-03-10T14:35:09.695Z,71.25
2023-03-10T14:37:36.005Z,82.88
2023-03-10T14:40:02.368Z,89.54
2023-03-10T14:42:28.718Z,94.35
2023-03-10T14:44:55.060Z,96.62
2023-03-10T14:47:21.596Z,97.38
2023-03-10T14:49:48.022Z,100.00
2023-03-10T14:52:14.469Z,98.85
2023-03-10T14:54:40.805Z,100.00
2023-03-10T14:57:07.298Z,100.00
2023-03-10T14:59:33.653Z,100.00
2023-03-10T15:02:00.024Z,100.00
2023-03-10T15:04:26.523Z,100.00
2023-03-10T15:06:53.218Z,100.00
2023-03-10T15:09:19.984Z,100.00
2023-03-10T15:11:46.361Z,100.00
2023-03-10T15:14:12.728Z,100.00
2023-03-10T15:16:40.711Z,97.36
2023-03-10T15:19:07.044Z,95.25
2023-03-10T15:21:33.373Z,98.99
2023-03-10T15:23:59.698Z,98.74
2023-03-10T15:26:26.028Z,97.45
2023-03-10T15:28:52.336Z,96.56
2023-03-10T15:31:18.696Z,96.63
2023-03-10T15:33:45.063Z,94.26
2023-03-10T15:36:11.458Z,90.96
2023-03-10T15:38:37.773Z,91.30
2023-03-10T15:41:07.676Z,90.36
2023-03-10T15:43:34.023Z,92.12
2023-03-10T15:46:00.353Z,88.04
2023-03-10T15:48:41.567Z,89.26
2023-03-10T15:51:09.668Z,87.12
2023-03-10T15:53:36.176Z,87.26
2023-03-10T15:56:02.684Z,86.72
2023-03-10T15:58:29.085Z,86.02
2023-03-10T16:00:55.394Z,85.60
2023-03-10T16:03:21.721Z,86.32
2023-03-10T16:05:48.731Z,85.15
2023-03-10T16:08:15.231Z,86.21
2023-03-10T16:10:41.566Z,87.73
2023-03-10T16:18:04.715Z,88.01
2023-03-10T16:20:31.039Z,88.60
2023-03-10T16:22:57.374Z,87.30
2023-03-10T16:25:23.693Z,88.39
2023-03-10T16:27:50.276Z,88.50
2023-03-10T16:30:16.652Z,86.04
2023-03-10T16:32:43.097Z,87.11
2023-03-10T16:35:09.482Z,87.50
2023-03-10T16:37:35.864Z,87.10
2023-03-10T16:40:02.299Z,85.44
2023-03-10T16:42:28.729Z,85.27
2023-03-10T16:44:55.253Z,86.84
2023-03-10T16:47:21.649Z,83.68
2023-03-10T16:49:47.997Z,83.50
2023-03-10T16:52:14.336Z,84.03
2023-03-10T16:54:40.654Z,83.53
2023-03-10T16:57:07.210Z,83.66
2023-03-10T16:59:33.596Z,83.87
2023-03-10T17:01:59.969Z,83.43
2023-03-10T17:04:28.182Z,82.97
2023-03-10T17:06:54.574Z,81.96
2023-03-10T17:09:20.916Z,83.54
2023-03-10T17:11:47.319Z,81.52
2023-03-10T17:14:14.275Z,80.87
2023-03-10T17:16:40.664Z,81.08
2023-03-10T17:19:07.024Z,80.68
2023-03-10T17:21:35.836Z,81.42
2023-03-10T17:24:02.243Z,82.82
2023-03-10T17:26:28.973Z,81.78
2023-03-10T17:28:55.344Z,80.23
2023-03-10T17:31:23.619Z,80.01
2023-03-10T17:33:50.437Z,79.07
2023-03-10T17:36:16.780Z,79.77
2023-03-10T17:38:43.117Z,81.10
2023-03-10T17:41:10.066Z,79.54
2023-03-10T17:43:36.505Z,79.04
2023-03-10T17:46:03.121Z,79.24
2023-03-10T17:48:29.546Z,79.75
2023-03-10T17:50:56.998Z,80.26
2023-03-10T17:53:23.511Z,79.20
2023-03-10T17:55:49.827Z,79.69
2023-03-10T17:58:16.227Z,80.20
2023-03-10T18:00:42.570Z,79.07
2023-03-10T18:03:09.476Z,79.41
2023-03-10T18:05:35.933Z,80.51
2023-03-10T18:08:02.315Z,80.68
2023-03-10T18:10:28.760Z,82.13
2023-03-10T18:12:55.096Z,81.57
2023-03-10T18:15:21.462Z,82.01
2023-03-10T18:17:47.769Z,81.27
2023-03-10T18:20:14.121Z,83.18
2023-03-10T18:22:40.454Z,82.94
2023-03-10T18:25:06.816Z,82.76
2023-03-10T18:27:33.183Z,83.96
2023-03-10T18:29:59.509Z,82.67
2023-03-10T18:32:27.381Z,82.33
2023-03-10T18:34:53.806Z,82.55
2023-03-10T18:37:20.119Z,82.20
2023-03-10T18:39:46.452Z,82.42
2023-03-10T18:42:12.801Z,82.97
2023-03-10T18:44:39.106Z,83.26
2023-03-10T18:47:05.620Z,84.46
2023-03-10T18:49:32.906Z,84.20
2023-03-10T18:51:59.303Z,84.37
2023-03-10T18:54:25.707Z,84.23
2023-03-10T18:56:52.049Z,84.33
2023-03-10T18:59:19.126Z,84.41
2023-03-10T19:01:45.605Z,84.12
2023-03-10T19:04:12.018Z,85.09
2023-03-10T19:06:38.349Z,85.45
2023-03-10T19:09:08.361Z,84.75
2023-03-10T19:11:35.546Z,84.64
2023-03-10T19:14:01.920Z,83.90
2023-03-10T19:18:59.721Z,83.99
2023-03-10T19:21:26.073Z,84.87
2023-03-10T19:23:52.457Z,85.67
2023-03-10T19:26:18.925Z,83.88
2023-03-10T19:28:45.241Z,83.50
2023-03-10T19:31:11.665Z,83.59
2023-03-10T19:33:39.916Z,82.98
2023-03-10T19:36:06.307Z,81.96
2023-03-10T19:38:32.680Z,81.55
2023-03-10T19:40:59.182Z,81.38
2023-03-10T19:43:25.510Z,81.68
2023-03-10T19:45:51.814Z,82.81
2023-03-10T19:48:18.280Z,82.69
2023-03-10T19:50:44.612Z,83.98
2023-03-10T19:53:12.620Z,84.73
2023-03-10T19:55:38.998Z,86.10
2023-03-10T19:58:05.347Z,87.37
2023-03-10T20:00:36.080Z,87.94
2023-03-10T20:03:02.686Z,88.62
2023-03-10T20:05:29.030Z,88.42
2023-03-10T20:07:55.347Z,88.98
2023-03-10T20:10:21.848Z,89.11
2023-03-10T20:12:48.247Z,89.78
2023-03-10T20:15:14.599Z,91.32
2023-03-10T20:17:40.910Z,92.53
2023-03-10T20:20:10.741Z,93.39
2023-03-10T20:22:37.285Z,93.17
2023-03-10T20:25:04.453Z,93.31
2023-03-10T20:27:30.837Z,91.79
2023-03-10T20:29:57.203Z,91.46
2023-03-10T20:32:23.628Z,91.64
2023-03-10T20:34:49.987Z,91.70
2023-03-10T20:37:16.320Z,91.61
2023-03-10T20:39:43.085Z,90.50
2023-03-10T20:42:10.470Z,89.55
2023-03-10T20:44:37.901Z,89.26
2023-03-10T20:47:04.269Z,90.14
2023-03-10T20:49:30.616Z,89.85
2023-03-10T20:51:57.025Z,91.28
2023-03-10T20:54:23.404Z,90.97
2023-03-10T20:56:49.807Z,90.28
2023-03-10T20:59:16.136Z,90.50
2023-03-10T21:01:42.650Z,89.92
2023-03-10T21:04:09.147Z,88.94
2023-03-10T21:06:36.182Z,88.86
2023-03-10T21:09:05.967Z,87.54
2023-03-10T21:11:32.585Z,86.52
2023-03-10T21:13:58.977Z,85.56
2023-03-10T21:16:25.493Z,86.20
2023-03-10T21:18:51.834Z,85.75
2023-03-10T21:21:18.423Z,86.27
2023-03-10T21:23:44.746Z,86.72
2023-03-10T21:26:11.261Z,87.10
2023-03-10T21:28:37.611Z,87.80
2023-03-10T21:31:04.576Z,88.42
2023-03-10T21:33:30.984Z,87.75
2023-03-10T21:35:57.353Z,87.14
2023-03-10T21:38:23.738Z,86.05
2023-03-10T21:40:50.058Z,86.64
2023-03-10T21:43:16.921Z,87.21
2023-03-10T21:45:43.259Z,85.26
2023-03-10T21:48:11.414Z,85.74
2023-03-10T21:50:38.126Z,85.50
2023-03-10T21:53:05.163Z,85.37
2023-03-10T21:55:31.843Z,85.51
2023-03-10T21:57:58.257Z,85.15
2023-03-10T22:00:24.805Z,85.14
2023-03-10T22:02:51.196Z,84.94
2023-03-10T22:05:18.573Z,85.74
2023-03-10T22:07:44.928Z,85.55
2023-03-10T22:10:11.316Z,86.70
2023-03-10T22:12:38.006Z,86.26
2023-03-10T22:15:04.321Z,87.06
2023-03-10T22:17:30.737Z,85.94
2023-03-10T22:19:57.144Z,86.65
2023-03-10T22:22:23.490Z,86.86
2023-03-10T22:24:49.817Z,88.00
2023-03-10T22:27:16.142Z,87.20
2023-03-10T22:29:42.476Z,89.13
2023-03-10T22:32:08.815Z,89.57
2023-03-10T22:34:35.275Z,88.63
2023-03-10T22:37:01.608Z,90.25
2023-03-10T22:39:27.953Z,90.15
2023-03-10T22:41:54.278Z,89.46
2023-03-10T22:44:20.676Z,91.97
2023-03-10T22:46:47.159Z,92.10
2023-03-10T22:49:14.298Z,92.20
2023-03-10T22:51:40.724Z,93.97
2023-03-10T22:54:07.099Z,93.87
2023-03-10T22:56:33.440Z,94.87
2023-03-10T22:59:03.949Z,95.33
2023-03-10T23:01:30.414Z,95.07
2023-03-10T23:03:56.862Z,92.90
2023-03-10T23:06:24.110Z,91.45
2023-03-10T23:08:51.919Z,92.51
2023-03-10T23:11:18.314Z,91.99
2023-03-10T23:13:44.639Z,92.21
2023-03-10T23:16:10.961Z,93.47
2023-03-10T23:18:37.373Z,92.29
2023-03-10T23:21:03.691Z,93.00
2023-03-10T23:23:31.907Z,93.34
2023-03-10T23:25:58.239Z,93.77
2023-03-10T23:28:24.558Z,94.53
2023-03-10T23:30:51.400Z,96.80
2023-03-10T23:33:17.713Z,96.32
2023-03-10T23:35:44.225Z,96.22
2023-03-10T23:38:10.578Z,96.12
2023-03-10T23:40:36.916Z,98.29
2023-03-10T23:43:03.235Z,97.56
2023-03-10T23:45:29.634Z,95.18
2023-03-10T23:47:56.033Z,93.97
2023-03-10T23:50:22.348Z,94.73
2023-03-10T23:52:48.735Z,96.14
2023-03-10T23:55:15.112Z,97.98
2023-03-10T23:57:41.438Z,96.71
